M/T Vemaoil Xi — 9HWD7 — position and weather

sailwx.info

Track history (hours):
 
Tides and Currents Weather Stations Pressure Air Temp Water Temp Dewpoint Dewpoint Depression Visibility Wind Speed Wind Dir Waves Ship Positions

M/T Vemaoil Xi

Last reported at 2017-Sep-26 01:06 UTC. Time now 2017-Sep-26 04:02 UTC.
Position N 35°50' E 014°36'.

Length 105 m; draft 4.8 m.

Type: Tanker. MMSI: 215631000.

Date/timePositionNaut miles runAvg speedWind from/ knotsBaromVisibWave heightAir tempDewpointWater temp
2017-Sep-26 01:06N 35°50' E 014°36'0 0.0
2017-Sep-25 22:01N 35°50' E 014°36'0 2.3
2017-Sep-25 22:00N 35°50' E 014°36'3 6.6
2017-Sep-25 21:30N 35°49' E 014°40'4 7.5
2017-Sep-25 20:59N 35°50' E 014°45'6 0.9
2017-Sep-25 15:04N 35°55' E 014°48'0 0.0
2017-Sep-25 13:37N 35°55' E 014°48'0 0.1
2017-Sep-25 13:22N 35°55' E 014°48'2 4.8
2017-Sep-25 13:00N 35°53' E 014°48'4 7.1
2017-Sep-25 12:26N 35°50' E 014°45'3 7.0
2017-Sep-25 11:58N 35°49' E 014°41'4 0.9
2017-Sep-25 07:17N 35°49' E 014°35'0 0.0
2017-Sep-25 06:59N 35°49' E 014°35'0 0.0
2017-Sep-25 06:29N 35°49' E 014°35'0 0.0
2017-Sep-25 05:29N 35°49' E 014°35'0 0.0
2017-Sep-25 04:59N 35°49' E 014°35'0 0.0
2017-Sep-25 03:53N 35°49' E 014°35'0 0.0
2017-Sep-25 03:26N 35°49' E 014°35'0 0.0
2017-Sep-25 02:41N 35°49' E 014°35'0 0.0
2017-Sep-25 02:11N 35°49' E 014°35'0 0.0
2017-Sep-25 00:41N 35°49' E 014°35'0 0.0
2017-Sep-24 21:32N 35°49' E 014°35'0 0.3
2017-Sep-24 21:29N 35°49' E 014°35'0 0.2
2017-Sep-24 20:56N 35°49' E 014°35'0 0.0
2017-Sep-24 19:23N 35°49' E 014°35'0 0.0
2017-Sep-24 14:41N 35°49' E 014°35'0 0.1
2017-Sep-24 14:29N 35°49' E 014°35'0 0.0
2017-Sep-24 13:47N 35°49' E 014°35'0 0.1
2017-Sep-24 12:05N 35°49' E 014°35'0 0.2
2017-Sep-24 11:56N 35°49' E 014°35'0 0.0
2017-Sep-24 11:17N 35°49' E 014°35'0 1.1
2017-Sep-24 10:59N 35°49' E 014°36'3 6.9
2017-Sep-24 10:30N 35°52' E 014°37'3 5.8
2017-Sep-24 10:00N 35°54' E 014°40'3 6.6
2017-Sep-24 09:30N 35°55' E 014°44'1 1.0
2017-Sep-24 08:39N 35°55' E 014°45'0 0.6
2017-Sep-24 08:21N 35°55' E 014°45'0 0.0
2017-Sep-24 07:54N 35°55' E 014°45'2 0.2
2017-Sep-23 21:59N 35°53' E 014°47'2 0.0
2017-Sep-22 01:34N 35°54' E 014°46'0 0.1
2017-Sep-22 01:28N 35°54' E 014°46'0 0.0
2017-Sep-22 00:52N 35°54' E 014°46'0 0.1
2017-Sep-22 00:16N 35°54' E 014°46'0 1.1
2017-Sep-21 23:59N 35°55' E 014°46'1 1.7
2017-Sep-21 23:21N 35°55' E 014°44'1 2.6
2017-Sep-21 23:00N 35°55' E 014°43'1 2.8
2017-Sep-21 22:30N 35°55' E 014°42'3 5.7
2017-Sep-21 22:00N 35°55' E 014°38'4 7.6
2017-Sep-21 21:30N 35°54' E 014°33'1 0.1
2017-Sep-21 06:14N 35°54' E 014°32'2 6.6
2017-Sep-21 06:00N 35°54' E 014°33'4 0.1
2017-Sep-19 20:26N 35°50' E 014°36'0 0.0
2017-Sep-19 19:41N 35°50' E 014°36'0 0.2
2017-Sep-19 17:41N 35°49' E 014°35'0 0.0
2017-Sep-19 17:11N 35°49' E 014°35'0 0.0
2017-Sep-19 14:47N 35°49' E 014°35'0 0.1
2017-Sep-19 12:40N 35°49' E 014°36'1 6.1
2017-Sep-19 12:26N 35°49' E 014°38'3 7.3
2017-Sep-19 12:00N 35°49' E 014°41'4 7.7
2017-Sep-19 11:30N 35°52' E 014°45'0 0.1
2017-Sep-19 06:05N 35°52' E 014°45'0 0.0
2017-Sep-19 05:23N 35°52' E 014°45'0 0.0
2017-Sep-19 04:53N 35°52' E 014°45'0 0.0
2017-Sep-19 04:23N 35°52' E 014°45'0 0.0
2017-Sep-19 03:14N 35°52' E 014°45'0 0.1
2017-Sep-19 02:39N 35°52' E 014°45'1 3.4
2017-Sep-19 02:21N 35°51' E 014°45'2 6.6
2017-Sep-19 02:00N 35°50' E 014°42'3 6.9
2017-Sep-19 01:30N 35°50' E 014°38'3 0.3
2017-Sep-18 17:10N 35°49' E 014°35'1 3.4
2017-Sep-18 16:57N 35°49' E 014°36'3 7.0
2017-Sep-18 16:30N 35°49' E 014°40'4 6.7
2017-Sep-18 15:55N 35°52' E 014°44'2 1.0
2017-Sep-18 13:47N 35°53' E 014°46'0 0.0
2017-Sep-18 13:08N 35°53' E 014°46'0 0.1
2017-Sep-18 12:56N 35°53' E 014°46'0 0.0
2017-Sep-18 12:26N 35°53' E 014°46'1 1.2
2017-Sep-18 12:00N 35°53' E 014°45'1 0.7
2017-Sep-18 11:11N 35°52' E 014°45'0 0.0
2017-Sep-18 10:41N 35°52' E 014°45'0 0.0
2017-Sep-18 10:23N 35°52' E 014°45'0 0.0
2017-Sep-18 09:59N 35°52' E 014°45'0 0.0
2017-Sep-18 08:11N 35°52' E 014°45'0 0.1
2017-Sep-18 07:59N 35°52' E 014°45'0 0.0
2017-Sep-18 07:29N 35°52' E 014°45'0 0.0
2017-Sep-18 06:59N 35°52' E 014°45'0 0.0
2017-Sep-18 06:23N 35°52' E 014°45'0 0.0
2017-Sep-18 05:59N 35°52' E 014°45'0 0.0
2017-Sep-18 05:26N 35°52' E 014°45'0 0.0
2017-Sep-18 04:59N 35°52' E 014°45'0 0.0
2017-Sep-18 04:23N 35°52' E 014°45'0 0.0
2017-Sep-18 03:53N 35°52' E 014°45'0 0.0
2017-Sep-18 03:29N 35°52' E 014°45'0 0.0
2017-Sep-18 02:59N 35°52' E 014°45'2 3.2
2017-Sep-18 02:30N 35°53' E 014°46'2 0.6
2017-Sep-17 23:00N 35°55' E 014°48'0 0.0
2017-Sep-17 22:15N 35°55' E 014°48'0 0.0
2017-Sep-17 21:33N 35°55' E 014°48'0 0.0
2017-Sep-17 20:51N 35°55' E 014°48'2 2.9
2017-Sep-17 20:09N 35°53' E 014°48'0 0.1
2017-Sep-17 18:25N 35°53' E 014°48'0 0.0
2017-Sep-17 13:49N 35°53' E 014°48'2 5.0
2017-Sep-17 13:30N 35°54' E 014°47'1 1.1
2017-Sep-17 12:38N 35°55' E 014°46'0 0.0
2017-Sep-17 12:29N 35°55' E 014°46'0 0.0
2017-Sep-17 10:50N 35°55' E 014°46'0 0.0
2017-Sep-17 10:29N 35°55' E 014°46'0 0.0
2017-Sep-17 09:56N 35°55' E 014°46'0 0.1
2017-Sep-17 09:15N 35°55' E 014°46'1 0.3
2017-Sep-17 04:46N 35°54' E 014°47'0 0.1
2017-Sep-17 04:28N 35°54' E 014°47'0 0.1
2017-Sep-17 03:49N 35°54' E 014°47'0 0.0
2017-Sep-17 03:28N 35°54' E 014°47'0 0.0
2017-Sep-17 02:58N 35°54' E 014°47'0 0.0
2017-Sep-17 02:25N 35°54' E 014°47'0 0.0
2017-Sep-17 01:55N 35°54' E 014°47'0 0.0
2017-Sep-17 01:22N 35°54' E 014°47'0 0.0
2017-Sep-17 00:55N 35°54' E 014°47'0 0.0
2017-Sep-17 00:19N 35°54' E 014°47'0 0.0
2017-Sep-16 23:58N 35°54' E 014°47'2 3.4
2017-Sep-16 23:30N 35°55' E 014°45'4 7.3
2017-Sep-16 23:00N 35°55' E 014°41'4 7.4
2017-Sep-16 22:30N 35°54' E 014°36'5 1.0
2017-Sep-16 17:40N 35°53' E 014°30'0 0.0
2017-Sep-16 17:22N 35°53' E 014°30'0 0.0
2017-Sep-16 16:46N 35°53' E 014°30'0 0.0
2017-Sep-16 16:28N 35°53' E 014°30'0 0.0
2017-Sep-16 15:58N 35°53' E 014°30'0 0.0
2017-Sep-16 15:16N 35°53' E 014°30'0 0.0
2017-Sep-16 14:55N 35°53' E 014°30'0 0.0
2017-Sep-16 14:28N 35°53' E 014°30'0 0.0
2017-Sep-16 13:58N 35°53' E 014°30'0 0.0
2017-Sep-16 13:28N 35°53' E 014°30'0 0.0
2017-Sep-16 12:58N 35°53' E 014°30'0 0.0
2017-Sep-16 12:28N 35°53' E 014°30'0 0.0
2017-Sep-16 11:43N 35°53' E 014°30'0 0.0
2017-Sep-16 11:28N 35°53' E 014°30'0 0.2
2017-Sep-16 11:00N 35°53' E 014°30'2 4.8
2017-Sep-16 10:30N 35°54' E 014°33'3 6.8
2017-Sep-16 10:00N 35°54' E 014°37'4 7.7
2017-Sep-16 09:30N 35°54' E 014°42'4 7.2
2017-Sep-16 09:00N 35°53' E 014°46'0 0.2
2017-Sep-16 08:25N 35°53' E 014°46'0 0.0
2017-Sep-16 07:58N 35°53' E 014°46'0 0.0
2017-Sep-16 07:25N 35°53' E 014°46'0 0.0
2017-Sep-16 06:55N 35°53' E 014°46'0 0.0
2017-Sep-16 06:28N 35°53' E 014°46'0 0.0
2017-Sep-16 05:55N 35°53' E 014°46'0 0.0
2017-Sep-16 05:28N 35°53' E 014°46'0 0.0
2017-Sep-16 04:58N 35°53' E 014°46'0 0.0
2017-Sep-16 04:25N 35°53' E 014°46'0 0.0
2017-Sep-16 03:58N 35°53' E 014°46'0 0.0
2017-Sep-16 03:28N 35°53' E 014°46'0 0.0
2017-Sep-16 02:55N 35°53' E 014°46'1 1.9
2017-Sep-16 02:30N 35°52' E 014°45'3 6.8
2017-Sep-16 02:00N 35°50' E 014°42'3 7.0
2017-Sep-16 01:30N 35°50' E 014°38'  
Track history (hours):
 
Tides and Currents Weather Stations Pressure Air Temp Water Temp Dewpoint Dewpoint Depression Visibility Wind Speed Wind Dir Waves Ship Positions

M/T Vemaoil Xi

Last reported at 2017-Sep-26 01:06 UTC. Time now 2017-Sep-26 04:02 UTC.
Position N 35°50' E 014°36'.

Length 105 m; draft 4.8 m.

Type: Tanker. MMSI: 215631000.

Date/timePositionNaut miles runAvg speedWind from/ knotsBaromVisibWave heightAir tempDewpointWater temp
2017-Sep-26 01:06N 35°50' E 014°36'0 0.0
2017-Sep-25 22:01N 35°50' E 014°36'0 2.3
2017-Sep-25 22:00N 35°50' E 014°36'3 6.6
2017-Sep-25 21:30N 35°49' E 014°40'4 7.5
2017-Sep-25 20:59N 35°50' E 014°45'6 0.9
2017-Sep-25 15:04N 35°55' E 014°48'0 0.0
2017-Sep-25 13:37N 35°55' E 014°48'0 0.1
2017-Sep-25 13:22N 35°55' E 014°48'2 4.8
2017-Sep-25 13:00N 35°53' E 014°48'4 7.1
2017-Sep-25 12:26N 35°50' E 014°45'3 7.0
2017-Sep-25 11:58N 35°49' E 014°41'4 0.9
2017-Sep-25 07:17N 35°49' E 014°35'0 0.0
2017-Sep-25 06:59N 35°49' E 014°35'0 0.0
2017-Sep-25 06:29N 35°49' E 014°35'0 0.0
2017-Sep-25 05:29N 35°49' E 014°35'0 0.0
2017-Sep-25 04:59N 35°49' E 014°35'0 0.0
2017-Sep-25 03:53N 35°49' E 014°35'0 0.0
2017-Sep-25 03:26N 35°49' E 014°35'0 0.0
2017-Sep-25 02:41N 35°49' E 014°35'0 0.0
2017-Sep-25 02:11N 35°49' E 014°35'0 0.0
2017-Sep-25 00:41N 35°49' E 014°35'0 0.0
2017-Sep-24 21:32N 35°49' E 014°35'0 0.3
2017-Sep-24 21:29N 35°49' E 014°35'0 0.2
2017-Sep-24 20:56N 35°49' E 014°35'0 0.0
2017-Sep-24 19:23N 35°49' E 014°35'0 0.0
2017-Sep-24 14:41N 35°49' E 014°35'0 0.1
2017-Sep-24 14:29N 35°49' E 014°35'0 0.0
2017-Sep-24 13:47N 35°49' E 014°35'0 0.1
2017-Sep-24 12:05N 35°49' E 014°35'0 0.2
2017-Sep-24 11:56N 35°49' E 014°35'0 0.0
2017-Sep-24 11:17N 35°49' E 014°35'0 1.1
2017-Sep-24 10:59N 35°49' E 014°36'3 6.9
2017-Sep-24 10:30N 35°52' E 014°37'3 5.8
2017-Sep-24 10:00N 35°54' E 014°40'3 6.6
2017-Sep-24 09:30N 35°55' E 014°44'1 1.0
2017-Sep-24 08:39N 35°55' E 014°45'0 0.6
2017-Sep-24 08:21N 35°55' E 014°45'0 0.0
2017-Sep-24 07:54N 35°55' E 014°45'2 0.2
2017-Sep-23 21:59N 35°53' E 014°47'2 0.0
2017-Sep-22 01:34N 35°54' E 014°46'0 0.1
2017-Sep-22 01:28N 35°54' E 014°46'0 0.0
2017-Sep-22 00:52N 35°54' E 014°46'0 0.1
2017-Sep-22 00:16N 35°54' E 014°46'0 1.1
2017-Sep-21 23:59N 35°55' E 014°46'1 1.7
2017-Sep-21 23:21N 35°55' E 014°44'1 2.6
2017-Sep-21 23:00N 35°55' E 014°43'1 2.8
2017-Sep-21 22:30N 35°55' E 014°42'3 5.7
2017-Sep-21 22:00N 35°55' E 014°38'4 7.6
2017-Sep-21 21:30N 35°54' E 014°33'1 0.1
2017-Sep-21 06:14N 35°54' E 014°32'2 6.6
2017-Sep-21 06:00N 35°54' E 014°33'4 0.1
2017-Sep-19 20:26N 35°50' E 014°36'0 0.0
2017-Sep-19 19:41N 35°50' E 014°36'0 0.2
2017-Sep-19 17:41N 35°49' E 014°35'0 0.0
2017-Sep-19 17:11N 35°49' E 014°35'0 0.0
2017-Sep-19 14:47N 35°49' E 014°35'0 0.1
2017-Sep-19 12:40N 35°49' E 014°36'1 6.1
2017-Sep-19 12:26N 35°49' E 014°38'3 7.3
2017-Sep-19 12:00N 35°49' E 014°41'4 7.7
2017-Sep-19 11:30N 35°52' E 014°45'0 0.1
2017-Sep-19 06:05N 35°52' E 014°45'0 0.0
2017-Sep-19 05:23N 35°52' E 014°45'0 0.0
2017-Sep-19 04:53N 35°52' E 014°45'0 0.0
2017-Sep-19 04:23N 35°52' E 014°45'0 0.0
2017-Sep-19 03:14N 35°52' E 014°45'0 0.1
2017-Sep-19 02:39N 35°52' E 014°45'1 3.4
2017-Sep-19 02:21N 35°51' E 014°45'2 6.6
2017-Sep-19 02:00N 35°50' E 014°42'3 6.9
2017-Sep-19 01:30N 35°50' E 014°38'3 0.3
2017-Sep-18 17:10N 35°49' E 014°35'1 3.4
2017-Sep-18 16:57N 35°49' E 014°36'3 7.0
2017-Sep-18 16:30N 35°49' E 014°40'4 6.7
2017-Sep-18 15:55N 35°52' E 014°44'2 1.0
2017-Sep-18 13:47N 35°53' E 014°46'0 0.0
2017-Sep-18 13:08N 35°53' E 014°46'0 0.1
2017-Sep-18 12:56N 35°53' E 014°46'0 0.0
2017-Sep-18 12:26N 35°53' E 014°46'1 1.2
2017-Sep-18 12:00N 35°53' E 014°45'1 0.7
2017-Sep-18 11:11N 35°52' E 014°45'0 0.0
2017-Sep-18 10:41N 35°52' E 014°45'0 0.0
2017-Sep-18 10:23N 35°52' E 014°45'0 0.0
2017-Sep-18 09:59N 35°52' E 014°45'0 0.0
2017-Sep-18 08:11N 35°52' E 014°45'0 0.1
2017-Sep-18 07:59N 35°52' E 014°45'0 0.0
2017-Sep-18 07:29N 35°52' E 014°45'0 0.0
2017-Sep-18 06:59N 35°52' E 014°45'0 0.0
2017-Sep-18 06:23N 35°52' E 014°45'0 0.0
2017-Sep-18 05:59N 35°52' E 014°45'0 0.0
2017-Sep-18 05:26N 35°52' E 014°45'0 0.0
2017-Sep-18 04:59N 35°52' E 014°45'0 0.0
2017-Sep-18 04:23N 35°52' E 014°45'0 0.0
2017-Sep-18 03:53N 35°52' E 014°45'0 0.0
2017-Sep-18 03:29N 35°52' E 014°45'0 0.0
2017-Sep-18 02:59N 35°52' E 014°45'2 3.2
2017-Sep-18 02:30N 35°53' E 014°46'2 0.6
2017-Sep-17 23:00N 35°55' E 014°48'0 0.0
2017-Sep-17 22:15N 35°55' E 014°48'0 0.0
2017-Sep-17 21:33N 35°55' E 014°48'0 0.0
2017-Sep-17 20:51N 35°55' E 014°48'2 2.9
2017-Sep-17 20:09N 35°53' E 014°48'0 0.1
2017-Sep-17 18:25N 35°53' E 014°48'0 0.0
2017-Sep-17 13:49N 35°53' E 014°48'2 5.0
2017-Sep-17 13:30N 35°54' E 014°47'1 1.1
2017-Sep-17 12:38N 35°55' E 014°46'0 0.0
2017-Sep-17 12:29N 35°55' E 014°46'0 0.0
2017-Sep-17 10:50N 35°55' E 014°46'0 0.0
2017-Sep-17 10:29N 35°55' E 014°46'0 0.0
2017-Sep-17 09:56N 35°55' E 014°46'0 0.1
2017-Sep-17 09:15N 35°55' E 014°46'1 0.3
2017-Sep-17 04:46N 35°54' E 014°47'0 0.1
2017-Sep-17 04:28N 35°54' E 014°47'0 0.1
2017-Sep-17 03:49N 35°54' E 014°47'0 0.0
2017-Sep-17 03:28N 35°54' E 014°47'0 0.0
2017-Sep-17 02:58N 35°54' E 014°47'0 0.0
2017-Sep-17 02:25N 35°54' E 014°47'0 0.0
2017-Sep-17 01:55N 35°54' E 014°47'0 0.0
2017-Sep-17 01:22N 35°54' E 014°47'0 0.0
2017-Sep-17 00:55N 35°54' E 014°47'0 0.0
2017-Sep-17 00:19N 35°54' E 014°47'0 0.0
2017-Sep-16 23:58N 35°54' E 014°47'2 3.4
2017-Sep-16 23:30N 35°55' E 014°45'4 7.3
2017-Sep-16 23:00N 35°55' E 014°41'4 7.4
2017-Sep-16 22:30N 35°54' E 014°36'5 1.0
2017-Sep-16 17:40N 35°53' E 014°30'0 0.0
2017-Sep-16 17:22N 35°53' E 014°30'0 0.0
2017-Sep-16 16:46N 35°53' E 014°30'0 0.0
2017-Sep-16 16:28N 35°53' E 014°30'0 0.0
2017-Sep-16 15:58N 35°53' E 014°30'0 0.0
2017-Sep-16 15:16N 35°53' E 014°30'0 0.0
2017-Sep-16 14:55N 35°53' E 014°30'0 0.0
2017-Sep-16 14:28N 35°53' E 014°30'0 0.0
2017-Sep-16 13:58N 35°53' E 014°30'0 0.0
2017-Sep-16 13:28N 35°53' E 014°30'0 0.0
2017-Sep-16 12:58N 35°53' E 014°30'0 0.0
2017-Sep-16 12:28N 35°53' E 014°30'0 0.0
2017-Sep-16 11:43N 35°53' E 014°30'0 0.0
2017-Sep-16 11:28N 35°53' E 014°30'0 0.2
2017-Sep-16 11:00N 35°53' E 014°30'2 4.8
2017-Sep-16 10:30N 35°54' E 014°33'3 6.8
2017-Sep-16 10:00N 35°54' E 014°37'4 7.7
2017-Sep-16 09:30N 35°54' E 014°42'4 7.2
2017-Sep-16 09:00N 35°53' E 014°46'0 0.2
2017-Sep-16 08:25N 35°53' E 014°46'0 0.0
2017-Sep-16 07:58N 35°53' E 014°46'0 0.0
2017-Sep-16 07:25N 35°53' E 014°46'0 0.0
2017-Sep-16 06:55N 35°53' E 014°46'0 0.0
2017-Sep-16 06:28N 35°53' E 014°46'0 0.0
2017-Sep-16 05:55N 35°53' E 014°46'0 0.0
2017-Sep-16 05:28N 35°53' E 014°46'0 0.0
2017-Sep-16 04:58N 35°53' E 014°46'0 0.0
2017-Sep-16 04:25N 35°53' E 014°46'0 0.0
2017-Sep-16 03:58N 35°53' E 014°46'0 0.0
2017-Sep-16 03:28N 35°53' E 014°46'0 0.0
2017-Sep-16 02:55N 35°53' E 014°46'1 1.9
2017-Sep-16 02:30N 35°52' E 014°45'3 6.8
2017-Sep-16 02:00N 35°50' E 014°42'3 7.0
2017-Sep-16 01:30N 35°50' E 014°38'  

Dump ship's entire track history